Time;durP1;ratioP1;P1;durP2;ratioP2;P2;SDS_P1;SDS_P2;PMS_P1;PMS_P2;Temp;Humidity;BMP_temperature;BMP_pressure;BME280_temperature;BME280_humidity;BME280_pressure;Samples;Min_cycle;Max_cycle;Signal;HPM_P1;HPM_P2
2023/03/31 00:02:23;;;;;;;11.60;2.90;;;10.60;99.90;;;11.14;100.00;97383.63;4974099;28;20499;-78
2023/03/31 00:04:53;;;;;;;8.30;2.40;;;10.50;99.90;;;11.10;100.00;97383.25;4979821;28;20540;-78
2023/03/31 00:07:23;;;;;;;5.60;2.03;;;10.50;99.90;;;11.09;100.00;97387.66;4981948;28;20505;-78
2023/03/31 00:09:56;;;;;;;5.83;1.60;;;10.50;99.90;;;11.09;100.00;97376.41;4980196;28;20473;-78
2023/03/31 00:12:44;;;;;;;11.87;2.30;;;10.50;99.90;;;11.10;100.00;97378.00;4979134;28;20466;-78
2023/03/31 00:15:14;;;;;;;4.40;1.67;;;10.50;99.90;;;11.08;100.00;97374.78;4986503;28;20537;-78
2023/03/31 00:17:43;;;;;;;10.27;3.07;;;10.50;99.90;;;11.07;100.00;97362.72;4986572;28;20511;-78
2023/03/31 00:20:14;;;;;;;8.37;2.87;;;10.50;99.90;;;11.03;100.00;97361.53;4978819;28;20526;-78
2023/03/31 00:22:45;;;;;;;4.90;1.90;;;10.50;99.90;;;11.04;100.00;97358.69;4998560;28;20465;-78
2023/03/31 00:25:18;;;;;;;11.80;2.33;;;10.50;99.90;;;11.01;100.00;97347.84;4990831;28;20583;-78
2023/03/31 00:27:49;;;;;;;10.13;2.47;;;10.50;99.90;;;11.02;100.00;97345.03;4976866;28;20471;-78
2023/03/31 00:30:19;;;;;;;14.93;2.87;;;10.40;99.90;;;11.02;100.00;97341.59;4992782;28;20464;-78
2023/03/31 00:32:48;;;;;;;4.23;1.70;;;10.40;99.90;;;11.03;100.00;97341.41;4978998;28;20490;-78
2023/03/31 00:35:18;;;;;;;2.40;1.70;;;10.40;99.90;;;11.02;100.00;97338.97;4981364;28;21016;-78
2023/03/31 00:37:49;;;;;;;10.40;2.00;;;10.40;99.90;;;11.01;100.00;97316.44;4991732;28;20906;-78
2023/03/31 00:40:21;;;;;;;8.03;2.27;;;10.40;99.90;;;11.00;100.00;97309.63;4989820;28;20468;-79
2023/03/31 00:42:50;;;;;;;5.83;2.33;;;10.40;99.90;;;10.98;100.00;97309.81;4989126;28;20550;-78
2023/03/31 00:45:47;;;;;;;6.13;2.40;;;10.40;99.90;;;10.93;100.00;97298.38;4993874;28;20508;-78
2023/03/31 00:48:20;;;;;;;12.63;2.10;;;10.40;99.90;;;10.91;100.00;97295.97;4995449;28;21079;-79
2023/03/31 00:50:56;;;;;;;3.03;1.90;;;10.30;99.90;;;10.89;100.00;97291.97;4992354;28;21038;-78
2023/03/31 00:53:32;;;;;;;11.10;2.10;;;10.30;99.90;;;10.88;100.00;97287.72;4982934;28;20459;-78
2023/03/31 00:56:12;;;;;;;5.50;2.30;;;10.30;99.90;;;10.84;100.00;97287.34;4992065;28;20459;-78
2023/03/31 00:58:44;;;;;;;8.33;2.33;;;10.30;99.90;;;10.84;100.00;97283.91;4981842;28;20564;-78
2023/03/31 01:01:23;;;;;;;10.53;2.20;;;10.30;99.90;;;10.84;100.00;97278.69;4988417;28;21409;-78
2023/03/31 01:03:53;;;;;;;5.63;2.20;;;10.30;99.90;;;10.80;100.00;97272.25;4989261;28;20495;-78
2023/03/31 01:06:24;;;;;;;7.20;2.87;;;10.30;99.90;;;10.81;100.00;97273.88;4988519;28;20460;-78
2023/03/31 01:08:53;;;;;;;5.20;2.23;;;10.20;99.90;;;10.84;100.00;97270.84;4992626;28;20502;-78
2023/03/31 01:11:29;;;;;;;2.70;1.97;;;10.30;99.90;;;10.80;100.00;97257.38;4988428;28;20483;-78
2023/03/31 01:13:59;;;;;;;12.33;2.30;;;10.20;99.90;;;10.79;100.00;97254.97;4979385;28;20475;-78
2023/03/31 01:16:30;;;;;;;6.27;2.33;;;10.30;99.90;;;10.77;100.00;97249.94;4985898;28;20913;-78
2023/03/31 01:18:59;;;;;;;4.03;2.03;;;10.20;99.90;;;10.80;100.00;97249.53;4985478;28;21021;-78
2023/03/31 01:22:24;;;;;;;7.40;1.90;;;10.30;99.90;;;10.84;100.00;97240.25;4980082;28;21037;-78
2023/03/31 01:25:53;;;;;;;8.83;1.70;;;10.20;99.90;;;10.86;100.00;97234.84;4982176;28;20488;-78
2023/03/31 01:28:41;;;;;;;15.20;3.67;;;10.30;99.90;;;10.83;100.00;97220.34;4941112;28;20504;-77
2023/03/31 01:32:00;;;;;;;4.17;1.30;;;10.30;99.90;;;10.82;100.00;97204.88;4979339;28;20477;-78
2023/03/31 01:35:33;;;;;;;7.93;1.60;;;10.30;99.90;;;10.88;100.00;97199.59;4986936;28;20472;-78
2023/03/31 01:38:49;;;;;;;4.40;1.23;;;10.40;99.90;;;10.87;100.00;97189.34;4984240;28;20554;-78
2023/03/31 01:41:42;;;;;;;9.43;1.60;;;10.30;99.90;;;10.88;100.00;97176.06;4962610;28;20471;-78
2023/03/31 01:44:26;;;;;;;8.23;1.70;;;10.30;99.90;;;10.89;100.00;97169.03;4980726;28;20583;-78
2023/03/31 01:47:00;;;;;;;7.47;1.83;;;10.30;99.90;;;10.93;100.00;97173.59;4986987;28;20543;-78
2023/03/31 01:49:44;;;;;;;3.07;1.50;;;10.40;99.90;;;10.96;100.00;97167.19;4981434;28;21017;-78
2023/03/31 01:52:23;;;;;;;9.73;1.87;;;10.40;99.90;;;10.98;100.00;97165.13;4981991;28;20468;-78
2023/03/31 01:55:01;;;;;;;7.13;1.50;;;10.40;99.90;;;11.00;100.00;97153.44;4999084;28;20473;-78
2023/03/31 01:57:37;;;;;;;6.30;1.30;;;10.40;99.90;;;10.98;100.00;97149.44;4984499;28;20452;-78
2023/03/31 02:00:12;;;;;;;2.27;1.43;;;10.40;99.90;;;10.98;100.00;97146.81;4990974;28;21051;-78
2023/03/31 02:02:50;;;;;;;11.70;1.50;;;10.40;99.90;;;11.00;100.00;97142.97;4977338;28;20467;-78
2023/03/31 02:05:25;;;;;;;5.80;1.63;;;10.50;99.90;;;10.95;100.00;97134.19;4983746;28;20503;-78
2023/03/31 02:07:59;;;;;;;4.37;1.40;;;10.40;99.90;;;10.98;100.00;97133.75;4985550;28;20482;-78
2023/03/31 02:10:32;;;;;;;6.50;1.43;;;10.40;99.90;;;11.01;100.00;97125.47;4978070;28;20572;-78
2023/03/31 02:13:05;;;;;;;6.43;1.63;;;10.40;99.90;;;11.01;100.00;97115.00;4981720;28;20860;-78
2023/03/31 02:15:39;;;;;;;6.23;1.40;;;10.50;99.90;;;11.00;100.00;97111.59;4988367;28;20997;-78
2023/03/31 02:18:16;;;;;;;6.80;1.30;;;10.50;99.90;;;11.01;100.00;97107.97;4998380;28;20473;-78
2023/03/31 02:20:51;;;;;;;7.73;2.10;;;10.50;99.90;;;11.00;100.00;97092.50;4983257;28;20470;-78
2023/03/31 02:23:28;;;;;;;5.10;1.77;;;10.50;99.90;;;10.99;100.00;97078.63;4994492;28;20468;-79
2023/03/31 02:26:04;;;;;;;4.97;1.33;;;10.50;99.90;;;10.98;100.00;97070.97;4997047;28;20495;-78
2023/03/31 02:28:36;;;;;;;3.57;1.40;;;10.40;99.90;;;11.00;100.00;97063.72;4998698;28;20617;-78
2023/03/31 02:31:26;;;;;;;10.40;1.50;;;10.30;99.90;;;11.00;100.00;97058.50;4988115;28;20550;-78
2023/03/31 02:33:56;;;;;;;6.30;1.90;;;10.40;99.90;;;11.00;100.00;97048.03;4986169;28;20456;-77
2023/03/31 02:36:26;;;;;;;4.37;1.57;;;10.40;99.90;;;11.00;100.00;97042.81;4984581;28;20891;-78
2023/03/31 02:39:02;;;;;;;4.80;1.40;;;10.40;99.90;;;10.98;100.00;97039.56;4985156;28;20462;-78
2023/03/31 02:41:33;;;;;;;3.77;1.27;;;10.40;99.90;;;10.96;100.00;97036.38;4985031;28;20472;-78
2023/03/31 02:44:04;;;;;;;9.40;1.80;;;10.30;99.90;;;10.95;100.00;97025.13;4982438;28;20487;-78
2023/03/31 02:46:34;;;;;;;6.63;1.90;;;10.40;99.90;;;10.94;100.00;97012.25;4984565;28;20488;-79
2023/03/31 02:49:10;;;;;;;6.97;1.50;;;10.30;99.90;;;10.94;100.00;97007.00;4985104;28;20971;-78
2023/03/31 02:52:26;;;;;;;4.10;1.73;;;10.30;99.90;;;10.93;100.00;97008.81;4991847;28;20468;-78
2023/03/31 02:55:29;;;;;;;4.17;1.33;;;10.30;99.90;;;10.88;100.00;96994.81;4980820;28;20483;-78
2023/03/31 02:58:33;;;;;;;3.77;1.40;;;10.30;99.90;;;10.86;100.00;96975.91;4976432;28;20479;-78
2023/03/31 03:01:53;;;;;;;13.03;2.30;;;10.20;99.90;;;10.86;100.00;96960.22;4959652;28;20491;-78
2023/03/31 03:04:49;;;;;;;2.30;1.60;;;10.30;99.90;;;10.83;100.00;96953.59;4997296;28;20452;-75
2023/03/31 03:07:30;;;;;;;28.73;13.47;;;10.20;99.90;;;10.84;100.00;96944.75;4997729;28;20895;-78
2023/03/31 03:10:07;;;;;;;2.13;1.43;;;10.20;99.90;;;10.80;100.00;96953.22;4982778;28;20485;-75
2023/03/31 03:12:50;;;;;;;10.77;2.20;;;10.20;99.90;;;10.78;100.00;96916.84;4985982;28;20517;-79
2023/03/31 03:15:27;;;;;;;3.30;1.50;;;10.20;99.90;;;10.80;100.00;96927.06;4994114;28;20551;-78
2023/03/31 03:17:59;;;;;;;6.77;1.50;;;10.10;99.90;;;10.79;100.00;96904.56;4978229;28;20476;-78
2023/03/31 03:20:29;;;;;;;7.57;1.57;;;10.10;99.90;;;10.79;100.00;96888.88;4988797;28;20474;-78
2023/03/31 03:22:59;;;;;;;5.60;1.70;;;10.20;99.90;;;10.75;100.00;96898.19;4987867;28;20910;-75
2023/03/31 03:25:30;;;;;;;1.93;1.40;;;10.10;99.90;;;10.65;100.00;96908.31;4982594;28;20498;-78
2023/03/31 03:28:00;;;;;;;6.60;1.87;;;10.10;99.90;;;10.60;100.00;96911.56;4980775;28;20470;-77
2023/03/31 03:30:30;;;;;;;22.10;1.57;;;10.10;99.90;;;10.60;100.00;96901.13;4988312;28;20521;-78
2023/03/31 03:33:00;;;;;;;4.40;1.60;;;10.10;99.90;;;10.53;100.00;96901.19;4983934;28;20464;-78
2023/03/31 03:35:30;;;;;;;3.17;1.70;;;10.00;99.90;;;10.47;100.00;96902.06;4983815;28;20469;-75
2023/03/31 03:38:00;;;;;;;6.00;1.37;;;10.00;99.90;;;10.47;100.00;96906.47;4976731;28;20464;-78
2023/03/31 03:40:30;;;;;;;8.40;1.30;;;9.90;99.90;;;10.47;100.00;96894.22;4996778;28;20474;-78
2023/03/31 03:43:00;;;;;;;5.83;1.50;;;9.90;99.90;;;10.45;100.00;96891.00;4990073;28;20449;-78
2023/03/31 03:45:30;;;;;;;3.07;1.50;;;9.90;99.90;;;10.43;100.00;96874.75;4994291;28;20493;-78
2023/03/31 03:48:00;;;;;;;5.80;1.93;;;9.90;99.90;;;10.45;100.00;96869.28;4986804;28;21127;-78
2023/03/31 03:50:30;;;;;;;2.90;1.07;;;9.80;99.90;;;10.42;100.00;96867.91;4995316;28;21022;-78
2023/03/31 03:53:00;;;;;;;9.37;1.67;;;9.80;99.90;;;10.39;100.00;96867.53;4989351;28;20471;-78
2023/03/31 03:55:30;;;;;;;4.93;1.30;;;9.80;99.90;;;10.34;100.00;96868.19;4989135;28;20560;-78
2023/03/31 03:58:00;;;;;;;9.70;1.60;;;9.80;99.90;;;10.36;100.00;96865.34;4996226;28;20466;-78
2023/03/31 04:00:30;;;;;;;3.20;1.23;;;9.80;99.90;;;10.37;100.00;96880.03;4980288;28;21033;-78
2023/03/31 04:03:00;;;;;;;4.70;1.47;;;9.80;99.90;;;10.34;100.00;96873.44;4991299;28;21242;-78
2023/03/31 04:05:30;;;;;;;10.07;1.67;;;9.80;99.90;;;10.36;100.00;96881.84;4986983;28;20500;-78
2023/03/31 04:08:01;;;;;;;3.30;1.30;;;9.80;99.90;;;10.36;100.00;96884.44;4985896;28;20467;-78
2023/03/31 04:10:31;;;;;;;5.07;1.60;;;9.80;99.90;;;10.37;100.00;96875.59;4977281;28;20499;-78
2023/03/31 04:13:01;;;;;;;5.87;1.80;;;9.80;99.90;;;10.37;100.00;96874.81;4979550;28;20502;-78
2023/03/31 04:15:30;;;;;;;2.50;1.70;;;9.80;99.90;;;10.38;100.00;96866.72;4981441;28;20552;-78
2023/03/31 04:18:01;;;;;;;2.13;1.63;;;9.80;99.90;;;10.36;100.00;96842.63;4984128;28;20487;-74
2023/03/31 04:20:31;;;;;;;6.43;2.60;;;9.80;99.90;;;10.38;100.00;96843.22;4984836;28;20550;-78
2023/03/31 04:23:04;;;;;;;13.03;2.10;;;9.70;99.90;;;10.41;100.00;96845.41;4986577;28;20495;-77
2023/03/31 04:25:37;;;;;;;20.03;2.13;;;9.80;99.90;;;10.40;100.00;96849.03;4971932;28;20832;-78
2023/03/31 04:28:09;;;;;;;12.77;2.37;;;9.80;99.90;;;10.42;100.00;96856.66;4977494;28;20465;-76
2023/03/31 04:30:40;;;;;;;10.57;5.90;;;9.80;99.90;;;10.41;100.00;96861.06;4981400;28;20577;-77
2023/03/31 04:33:14;;;;;;;5.20;2.23;;;9.80;99.90;;;10.43;100.00;96853.03;4984727;28;20513;-78
2023/03/31 04:35:51;;;;;;;4.83;1.87;;;9.80;99.90;;;10.42;100.00;96844.38;4984148;28;20463;-78
2023/03/31 04:38:25;;;;;;;9.60;2.53;;;9.80;99.90;;;10.44;100.00;96846.78;4982970;28;20551;-78
2023/03/31 04:40:56;;;;;;;9.57;2.13;;;9.80;99.90;;;10.44;100.00;96845.00;4990912;28;20539;-78
2023/03/31 04:43:27;;;;;;;4.07;1.50;;;9.80;99.90;;;10.43;100.00;96816.44;4991485;28;20475;-78
2023/03/31 04:45:56;;;;;;;11.27;1.40;;;9.90;99.90;;;10.44;100.00;96787.50;4989123;28;20609;-78
2023/03/31 04:48:27;;;;;;;5.73;1.83;;;9.90;99.90;;;10.42;100.00;96779.06;4985188;28;20852;-78
2023/03/31 04:50:57;;;;;;;8.10;1.40;;;9.90;99.90;;;10.42;100.00;96783.47;4994204;28;20492;-78
2023/03/31 04:53:26;;;;;;;6.00;1.47;;;9.80;99.90;;;10.38;100.00;96777.88;4977047;28;20473;-78
2023/03/31 04:55:55;;;;;;;3.20;1.97;;;9.90;99.90;;;10.38;100.00;96770.03;4981478;28;20465;-78
2023/03/31 04:58:25;;;;;;;6.30;1.30;;;9.80;99.90;;;10.39;100.00;96758.59;4980712;28;20477;-78
2023/03/31 05:00:55;;;;;;;5.87;2.20;;;9.80;99.90;;;10.37;100.00;96755.41;4983900;28;20522;-78
2023/03/31 05:03:28;;;;;;;4.90;2.30;;;9.80;99.90;;;10.37;100.00;96749.38;4990610;28;20545;-78
2023/03/31 05:05:57;;;;;;;6.43;1.77;;;9.80;99.90;;;10.39;100.00;96740.28;4982275;28;20894;-78
2023/03/31 05:08:27;;;;;;;4.43;1.90;;;9.90;99.90;;;10.39;100.00;96732.47;4987579;28;20478;-78
2023/03/31 05:10:56;;;;;;;8.30;1.63;;;9.80;99.90;;;10.39;100.00;96719.41;4983691;28;20472;-78
2023/03/31 05:13:25;;;;;;;4.50;1.63;;;9.90;99.90;;;10.39;100.00;96706.31;4997635;28;21009;-77
2023/03/31 05:15:55;;;;;;;7.17;1.93;;;9.80;99.90;;;10.38;100.00;96683.00;4985584;28;20472;-78
2023/03/31 05:18:27;;;;;;;9.87;2.43;;;9.80;99.90;;;10.38;100.00;96667.34;4983219;28;20549;-78
2023/03/31 05:20:58;;;;;;;9.80;2.50;;;9.80;99.90;;;10.40;100.00;96670.53;4988656;28;20465;-78
2023/03/31 05:23:27;;;;;;;6.60;2.00;;;9.80;99.90;;;10.37;100.00;96656.13;4991571;28;20920;-78
2023/03/31 05:25:57;;;;;;;8.63;2.23;;;9.80;99.90;;;10.40;100.00;96647.03;4982019;28;20556;-78
2023/03/31 05:28:27;;;;;;;3.30;2.30;;;9.80;99.90;;;10.38;100.00;96642.00;4994886;28;20512;-78
2023/03/31 05:31:01;;;;;;;6.70;1.83;;;9.80;99.90;;;10.37;100.00;96629.97;4986737;28;20552;-78
2023/03/31 05:33:32;;;;;;;6.33;1.90;;;9.80;99.90;;;10.37;100.00;96624.75;4992570;28;20456;-78
2023/03/31 05:36:02;;;;;;;2.53;1.60;;;9.80;99.90;;;10.39;100.00;96608.84;4988345;28;20464;-78
2023/03/31 05:38:33;;;;;;;2.20;1.40;;;9.80;99.90;;;10.41;100.00;96609.44;4979442;28;20492;-77
2023/03/31 05:41:05;;;;;;;3.00;2.17;;;9.80;99.90;;;10.43;100.00;96599.53;4987309;28;20493;-78
2023/03/31 05:43:34;;;;;;;3.70;2.10;;;9.80;99.90;;;10.45;100.00;96598.28;4986538;28;20548;-78
2023/03/31 05:46:05;;;;;;;5.63;2.00;;;9.90;99.90;;;10.47;100.00;96588.44;4986616;28;20476;-77
2023/03/31 05:48:38;;;;;;;3.73;2.17;;;9.90;99.90;;;10.48;100.00;96584.00;4980041;28;20469;-78
2023/03/31 05:51:08;;;;;;;3.97;1.87;;;10.00;99.90;;;10.45;100.00;96590.47;4975899;28;20807;-78
2023/03/31 05:53:37;;;;;;;3.37;1.90;;;9.90;99.90;;;10.46;100.00;96586.84;4985058;28;20838;-78
2023/03/31 05:56:09;;;;;;;4.00;2.33;;;9.90;99.90;;;10.49;100.00;96596.84;4977521;28;20464;-77
2023/03/31 05:58:39;;;;;;;10.37;2.23;;;9.90;99.90;;;10.52;100.00;96590.38;4972921;28;20461;-78
2023/03/31 06:01:19;;;;;;;4.10;2.27;;;10.00;99.90;;;10.50;100.00;96600.25;4991841;28;20467;-78
2023/03/31 06:03:51;;;;;;;4.67;2.10;;;10.00;99.90;;;10.50;100.00;96605.47;4979718;28;20471;-78
2023/03/31 06:06:22;;;;;;;4.40;2.83;;;10.00;99.90;;;10.49;100.00;96628.19;4977612;28;21249;-78
2023/03/31 06:08:52;;;;;;;4.47;2.40;;;10.00;99.90;;;10.49;100.00;96633.44;4982362;28;20475;-78
2023/03/31 06:11:23;;;;;;;8.10;3.20;;;10.00;99.90;;;10.49;100.00;96646.50;4983845;28;20463;-78
2023/03/31 06:13:53;;;;;;;6.63;2.50;;;10.00;99.90;;;10.51;100.00;96647.09;4993055;28;20461;-78
2023/03/31 06:16:23;;;;;;;11.43;3.13;;;10.00;99.90;;;10.55;100.00;96648.22;4996120;28;20494;-78
2023/03/31 06:18:54;;;;;;;8.80;2.30;;;10.00;99.90;;;10.59;100.00;96625.06;4981082;28;20459;-78
2023/03/31 06:21:24;;;;;;;6.83;2.37;;;10.10;99.90;;;10.60;100.00;96631.88;4984141;28;20552;-78
2023/03/31 06:23:54;;;;;;;5.73;2.53;;;10.00;99.90;;;10.60;100.00;96640.53;4991963;28;20470;-78
2023/03/31 06:26:25;;;;;;;5.90;2.20;;;10.00;99.90;;;10.65;100.00;96646.91;4990876;28;20476;-78
2023/03/31 06:28:56;;;;;;;4.27;2.23;;;10.10;99.90;;;10.66;100.00;96644.06;4985988;28;20824;-78
2023/03/31 06:31:26;;;;;;;11.17;2.90;;;10.10;99.90;;;10.67;100.00;96652.69;4989607;28;20485;-77
2023/03/31 06:33:57;;;;;;;7.00;2.70;;;10.00;99.90;;;10.69;100.00;96637.59;4983534;28;20461;-78
2023/03/31 06:36:28;;;;;;;5.10;2.47;;;10.10;99.90;;;10.72;100.00;96650.22;4986440;28;20546;-78
2023/03/31 06:38:57;;;;;;;2.40;2.20;;;10.10;99.90;;;10.73;100.00;96641.34;4988312;28;20465;-78
2023/03/31 06:41:28;;;;;;;3.37;2.00;;;10.20;99.90;;;10.72;100.00;96629.31;4987500;28;20471;-78
2023/03/31 06:43:58;;;;;;;2.50;1.80;;;10.20;99.90;;;10.72;100.00;96626.72;4993098;28;21106;-78
2023/03/31 06:46:28;;;;;;;4.00;1.80;;;10.10;99.90;;;10.75;100.00;96618.41;4992996;28;20522;-77
2023/03/31 06:49:00;;;;;;;2.53;2.20;;;10.20;99.90;;;10.75;100.00;96616.59;4978127;28;20975;-78
2023/03/31 06:51:30;;;;;;;1.60;1.40;;;10.20;99.90;;;10.77;100.00;96626.81;4984748;28;20514;-78
2023/03/31 06:54:00;;;;;;;1.87;1.60;;;10.20;99.90;;;10.77;100.00;96624.19;4980648;28;20465;-78
2023/03/31 06:56:30;;;;;;;1.50;1.40;;;10.20;99.90;;;10.76;100.00;96627.84;4977557;28;20547;-78
2023/03/31 06:59:00;;;;;;;4.63;1.70;;;10.20;99.90;;;10.75;100.00;96621.03;4978104;28;20503;-78
2023/03/31 07:01:36;;;;;;;2.40;1.37;;;10.20;99.90;;;10.72;100.00;96631.94;4983193;28;20550;-77
2023/03/31 07:04:08;;;;;;;2.07;1.80;;;10.10;99.90;;;10.74;100.00;96624.66;4977336;28;20864;-78
2023/03/31 07:06:37;;;;;;;2.20;1.57;;;10.20;99.90;;;10.76;100.00;96617.41;4987387;28;21230;-78
2023/03/31 07:09:08;;;;;;;3.53;1.63;;;10.20;99.90;;;10.74;100.00;96617.59;4983507;28;20463;-77
2023/03/31 07:11:39;;;;;;;3.10;1.50;;;10.20;99.90;;;10.74;100.00;96612.38;4979002;28;21558;-78
2023/03/31 07:14:09;;;;;;;3.60;1.33;;;10.20;99.90;;;10.78;100.00;96604.88;4985805;28;20540;-77
2023/03/31 07:16:39;;;;;;;2.00;1.57;;;10.20;99.90;;;10.82;100.00;96603.44;4983968;28;20515;-78
2023/03/31 07:19:11;;;;;;;6.93;1.43;;;10.20;99.90;;;10.85;100.00;96598.53;4987572;28;20500;-78
2023/03/31 07:21:43;;;;;;;1.70;1.40;;;10.30;99.90;;;10.87;100.00;96599.09;4987501;28;20963;-78
2023/03/31 07:24:12;;;;;;;3.77;1.60;;;10.30;99.90;;;10.87;100.00;96604.34;4983931;28;20809;-78
2023/03/31 07:26:41;;;;;;;2.47;1.40;;;10.30;99.90;;;10.86;100.00;96599.34;4982828;28;20483;-78
2023/03/31 07:29:10;;;;;;;1.80;1.27;;;10.40;99.90;;;10.88;100.00;96605.13;4979057;28;20517;-78
2023/03/31 07:31:40;;;;;;;3.60;1.60;;;10.40;99.90;;;10.89;100.00;96604.13;4988959;28;20483;-78
2023/03/31 07:34:11;;;;;;;5.20;1.80;;;10.40;99.90;;;10.87;100.00;96600.91;4984897;28;20827;-78
2023/03/31 07:36:41;;;;;;;6.57;2.03;;;10.30;99.90;;;10.86;100.00;96597.53;4982746;28;20463;-78
2023/03/31 07:39:11;;;;;;;4.50;1.70;;;10.40;99.90;;;10.85;100.00;96593.31;4998931;28;20558;-78
2023/03/31 07:41:40;;;;;;;4.80;1.50;;;10.40;99.90;;;10.84;100.00;96610.03;4994691;28;20467;-78
2023/03/31 07:44:10;;;;;;;6.20;1.50;;;10.30;99.90;;;10.86;100.00;96588.88;4992073;28;20508;-78
2023/03/31 07:46:41;;;;;;;3.77;1.67;;;10.30;99.90;;;10.81;100.00;96581.72;4995961;28;20463;-78
2023/03/31 07:49:14;;;;;;;4.77;1.83;;;10.30;99.90;;;10.86;100.00;96581.03;4991336;28;21105;-78
2023/03/31 07:51:45;;;;;;;4.83;2.10;;;10.40;99.90;;;10.91;100.00;96583.75;4991586;28;21314;-78
2023/03/31 07:54:14;;;;;;;8.10;2.90;;;10.40;99.90;;;10.95;100.00;96575.25;4993292;28;20527;-78
2023/03/31 07:56:43;;;;;;;3.33;2.00;;;10.40;99.90;;;10.96;100.00;96566.41;4989774;28;20508;-77
2023/03/31 07:59:13;;;;;;;6.27;2.00;;;10.50;99.90;;;11.03;100.00;96574.13;4987828;28;20536;-77
2023/03/31 08:01:42;;;;;;;4.77;1.90;;;10.50;99.90;;;11.05;100.00;96566.84;4991191;28;20460;-77
2023/03/31 08:04:14;;;;;;;10.37;3.50;;;10.50;99.90;;;11.08;100.00;96576.84;4982052;28;20461;-78
2023/03/31 08:06:44;;;;;;;8.23;2.33;;;10.60;99.90;;;11.13;100.00;96555.25;4990900;28;20471;-78
2023/03/31 08:09:13;;;;;;;17.90;3.20;;;10.60;99.90;;;11.13;100.00;96536.94;4990610;28;20566;-78
2023/03/31 08:11:43;;;;;;;7.00;2.50;;;10.60;99.90;;;11.18;100.00;96540.47;4980565;28;20460;-78
2023/03/31 08:14:16;;;;;;;9.63;3.10;;;10.70;99.90;;;11.21;100.00;96555.69;4979968;28;20470;-77
2023/03/31 08:17:02;;;;;;;11.43;2.40;;;10.70;99.90;;;11.16;100.00;96563.44;4975817;28;20476;-79
2023/03/31 08:19:33;;;;;;;9.43;2.10;;;10.70;99.90;;;11.13;100.00;96550.81;4985953;28;20476;-78
2023/03/31 08:22:02;;;;;;;6.87;1.90;;;10.70;99.90;;;11.15;100.00;96540.13;4986552;28;20578;-77
2023/03/31 08:24:31;;;;;;;5.80;1.97;;;10.70;99.90;;;11.14;100.00;96536.72;4978451;28;20470;-77
2023/03/31 08:27:01;;;;;;;7.73;2.80;;;10.70;99.90;;;11.11;100.00;96526.69;4993796;28;20464;-78
2023/03/31 08:29:32;;;;;;;5.17;2.27;;;10.70;99.90;;;11.13;100.00;96532.50;4988958;28;20484;-78
2023/03/31 08:32:02;;;;;;;12.50;2.60;;;10.60;99.90;;;11.19;100.00;96533.41;4987903;28;21021;-78
2023/03/31 08:34:33;;;;;;;7.47;2.40;;;10.70;99.90;;;11.24;100.00;96518.63;4984364;28;20948;-77
2023/03/31 08:37:03;;;;;;;6.60;1.93;;;10.70;99.90;;;11.26;100.00;96529.66;4981203;28;20523;-78
2023/03/31 08:39:36;;;;;;;5.80;1.70;;;10.80;99.90;;;11.24;100.00;96515.22;4998114;28;20465;-78
2023/03/31 08:42:15;;;;;;;5.33;2.20;;;10.70;99.90;;;11.27;100.00;96518.16;4995854;28;21044;-78
2023/03/31 08:45:00;;;;;;;8.20;2.30;;;10.80;99.90;;;11.28;100.00;96517.13;4999225;28;20464;-78
2023/03/31 08:47:36;;;;;;;4.03;1.60;;;10.80;99.90;;;11.33;100.00;96512.00;4991772;28;20474;-78
2023/03/31 08:50:14;;;;;;;9.40;2.37;;;10.90;99.90;;;11.36;100.00;96526.47;4991620;28;20975;-78
2023/03/31 08:52:51;;;;;;;9.00;2.43;;;10.90;99.90;;;11.37;100.00;96525.44;4995166;28;20584;-78
2023/03/31 08:55:31;;;;;;;9.00;2.40;;;10.90;99.90;;;11.41;100.00;96526.56;4992621;28;20464;-78
2023/03/31 08:58:06;;;;;;;13.13;3.17;;;10.90;99.90;;;11.42;100.00;96531.56;4978640;28;20551;-78
2023/03/31 09:00:49;;;;;;;12.70;2.23;;;10.90;99.90;;;11.51;100.00;96516.31;4983515;28;20464;-77
2023/03/31 09:03:31;;;;;;;18.97;2.60;;;11.00;99.90;;;11.55;100.00;96515.63;4981077;28;20474;-78
2023/03/31 09:06:08;;;;;;;9.63;2.47;;;11.10;99.90;;;11.60;100.00;96512.31;4994469;28;20471;-77
2023/03/31 09:08:41;;;;;;;9.93;2.97;;;11.10;99.90;;;11.66;100.00;96498.31;4980406;28;20502;-78
2023/03/31 09:11:19;;;;;;;10.70;2.60;;;11.20;99.90;;;11.70;100.00;96494.19;4987280;28;20496;-78
2023/03/31 09:14:31;;;;;;;12.50;2.87;;;11.20;99.90;;;11.74;100.00;96533.81;4982187;28;20477;-78
2023/03/31 09:17:18;;;;;;;13.83;3.67;;;11.20;99.90;;;11.68;100.00;96558.28;4989030;28;20464;-78
2023/03/31 09:19:56;;;;;;;7.23;2.00;;;11.20;99.90;;;11.52;100.00;96534.41;4988983;28;21077;-78
2023/03/31 09:22:34;;;;;;;5.70;1.80;;;11.00;99.90;;;11.43;100.00;96529.75;4981354;28;21119;-78
2023/03/31 09:25:11;;;;;;;10.63;2.13;;;11.00;99.90;;;11.33;100.00;96529.53;4980444;28;20974;-78
2023/03/31 09:27:46;;;;;;;14.87;2.13;;;10.90;99.90;;;11.31;100.00;96532.41;4992219;28;20559;-78
2023/03/31 09:30:22;;;;;;;6.77;1.60;;;10.90;99.90;;;11.26;100.00;96534.88;4997130;28;20567;-78
2023/03/31 09:33:03;;;;;;;10.33;2.60;;;10.80;99.90;;;11.22;100.00;96523.28;4986976;28;20448;-78
2023/03/31 09:35:33;;;;;;;6.17;1.63;;;10.80;99.90;;;11.28;100.00;96521.59;4985042;28;20473;-78
2023/03/31 09:38:04;;;;;;;8.00;1.60;;;10.80;99.90;;;11.32;100.00;96515.66;4992528;28;20485;-78
2023/03/31 09:40:35;;;;;;;9.70;2.47;;;10.90;99.90;;;11.30;100.00;96516.91;4998406;28;20504;-77
2023/03/31 09:43:08;;;;;;;11.40;1.77;;;10.80;99.90;;;11.35;100.00;96512.56;4993871;28;20459;-78
2023/03/31 09:45:38;;;;;;;8.00;2.27;;;10.90;99.90;;;11.44;100.00;96511.22;4984014;28;20503;-78
2023/03/31 09:48:16;;;;;;;9.20;2.60;;;10.90;99.90;;;11.53;100.00;96504.59;4991842;28;20501;-77
2023/03/31 09:50:51;;;;;;;13.70;2.80;;;11.00;99.90;;;11.65;100.00;96501.16;4998673;28;20456;-78
2023/03/31 09:53:32;;;;;;;4.70;1.77;;;11.10;99.90;;;11.67;100.00;96506.94;4976346;28;20502;-77
2023/03/31 09:56:04;;;;;;;10.97;2.20;;;11.20;99.90;;;11.63;100.00;96494.31;4982357;28;20961;-77
2023/03/31 09:58:42;;;;;;;15.57;2.20;;;11.20;99.90;;;11.71;100.00;96485.34;4991523;28;20555;-77
2023/03/31 10:01:14;;;;;;;9.10;2.30;;;11.30;99.90;;;11.78;100.00;96490.44;4978846;28;20558;-77
2023/03/31 10:03:51;;;;;;;20.37;3.47;;;11.20;99.90;;;11.87;100.00;96489.06;4984393;28;20494;-78
2023/03/31 10:06:23;;;;;;;8.30;2.30;;;11.40;99.90;;;11.94;100.00;96476.63;4985896;28;21016;-77
2023/03/31 10:08:58;;;;;;;12.17;2.50;;;11.50;99.90;;;11.92;100.00;96476.03;4991707;28;21036;-77
2023/03/31 10:11:27;;;;;;;11.73;2.77;;;11.50;99.90;;;11.90;100.00;96472.88;4989722;28;20478;-78
2023/03/31 10:14:03;;;;;;;7.43;2.17;;;11.40;99.90;;;11.96;100.00;96477.16;4990458;28;20464;-78
2023/03/31 10:16:44;;;;;;;10.33;2.20;;;11.50;99.90;;;11.95;100.00;96472.94;4989421;28;20491;-78
2023/03/31 10:19:21;;;;;;;8.17;2.50;;;11.50;99.90;;;11.99;100.00;96461.78;4990620;28;21147;-78
2023/03/31 10:21:58;;;;;;;14.13;2.47;;;11.50;99.90;;;12.04;100.00;96453.22;4991197;28;20460;-78
2023/03/31 10:24:38;;;;;;;17.87;2.90;;;11.60;99.90;;;12.09;100.00;96456.72;4977424;28;20463;-78
2023/03/31 10:27:24;;;;;;;20.80;3.40;;;11.60;99.90;;;12.15;100.00;96459.44;4989449;28;21036;-78
2023/03/31 10:29:56;;;;;;;24.57;4.10;;;11.60;99.90;;;12.23;100.00;96451.16;4994075;28;21024;-78
2023/03/31 10:32:29;;;;;;;14.63;3.87;;;11.80;99.90;;;12.32;100.00;96439.28;4993298;28;20461;-78
2023/03/31 10:35:03;;;;;;;13.20;3.47;;;11.80;99.90;;;12.29;100.00;96445.78;4986600;28;20810;-78
2023/03/31 10:37:37;;;;;;;9.37;2.97;;;11.80;99.90;;;12.34;100.00;96448.50;4988817;28;20969;-78
2023/03/31 10:40:19;;;;;;;12.17;2.93;;;11.80;99.90;;;12.36;100.00;96459.53;4991902;28;20471;-78
2023/03/31 10:43:01;;;;;;;13.40;2.70;;;11.80;99.90;;;12.42;100.00;96455.97;4988843;28;20597;-78
2023/03/31 10:45:38;;;;;;;14.90;2.67;;;11.80;99.90;;;12.47;100.00;96461.28;4981529;28;20499;-78